sensor_id;sensor_type;location;lat;lon;timestamp;P1;durP1;ratioP1;P2;durP2;ratioP2
44862;SDS011;30597;49.628;10.850;2022-08-19T00:00:17;11.63;;;10.63;;
44862;SDS011;30597;49.628;10.850;2022-08-19T00:02:43;10.93;;;10.03;;
44862;SDS011;30597;49.628;10.850;2022-08-19T00:05:10;11.63;;;10.53;;
44862;SDS011;30597;49.628;10.850;2022-08-19T00:07:38;11.67;;;10.50;;
44862;SDS011;30597;49.628;10.850;2022-08-19T00:10:04;10.77;;;9.77;;
44862;SDS011;30597;49.628;10.850;2022-08-19T00:12:31;12.00;;;10.97;;
44862;SDS011;30597;49.628;10.850;2022-08-19T00:14:57;10.20;;;9.30;;
44862;SDS011;30597;49.628;10.850;2022-08-19T00:17:23;11.53;;;10.60;;
44862;SDS011;30597;49.628;10.850;2022-08-19T00:19:48;11.00;;;10.00;;
44862;SDS011;30597;49.628;10.850;2022-08-19T00:22:14;10.87;;;9.77;;
44862;SDS011;30597;49.628;10.850;2022-08-19T00:24:40;11.27;;;10.33;;
44862;SDS011;30597;49.628;10.850;2022-08-19T00:27:08;11.17;;;10.00;;
44862;SDS011;30597;49.628;10.850;2022-08-19T00:29:34;10.97;;;10.10;;
44862;SDS011;30597;49.628;10.850;2022-08-19T00:31:59;10.50;;;9.53;;
44862;SDS011;30597;49.628;10.850;2022-08-19T00:34:25;10.70;;;9.80;;
44862;SDS011;30597;49.628;10.850;2022-08-19T00:36:52;10.30;;;9.40;;
44862;SDS011;30597;49.628;10.850;2022-08-19T00:39:18;10.00;;;9.20;;
44862;SDS011;30597;49.628;10.850;2022-08-19T00:41:44;11.00;;;10.00;;
44862;SDS011;30597;49.628;10.850;2022-08-19T00:46:43;11.57;;;10.67;;
44862;SDS011;30597;49.628;10.850;2022-08-19T00:49:11;11.90;;;10.70;;
44862;SDS011;30597;49.628;10.850;2022-08-19T00:51:45;10.20;;;9.30;;
44862;SDS011;30597;49.628;10.850;2022-08-19T00:54:15;11.07;;;10.10;;
44862;SDS011;30597;49.628;10.850;2022-08-19T00:56:42;10.53;;;9.63;;
44862;SDS011;30597;49.628;10.850;2022-08-19T00:59:08;10.70;;;9.80;;
44862;SDS011;30597;49.628;10.850;2022-08-19T01:01:36;10.60;;;9.80;;
44862;SDS011;30597;49.628;10.850;2022-08-19T01:04:03;10.10;;;9.23;;
44862;SDS011;30597;49.628;10.850;2022-08-19T01:06:28;10.00;;;9.20;;
44862;SDS011;30597;49.628;10.850;2022-08-19T01:08:57;11.40;;;10.40;;
44862;SDS011;30597;49.628;10.850;2022-08-19T01:11:23;10.43;;;9.63;;
44862;SDS011;30597;49.628;10.850;2022-08-19T01:13:48;9.97;;;9.07;;
44862;SDS011;30597;49.628;10.850;2022-08-19T01:16:17;10.27;;;9.40;;
44862;SDS011;30597;49.628;10.850;2022-08-19T01:18:45;8.90;;;8.20;;
44862;SDS011;30597;49.628;10.850;2022-08-19T01:21:12;11.20;;;10.30;;
44862;SDS011;30597;49.628;10.850;2022-08-19T01:23:57;10.20;;;9.40;;
44862;SDS011;30597;49.628;10.850;2022-08-19T01:26:24;9.60;;;8.90;;
44862;SDS011;30597;49.628;10.850;2022-08-19T01:28:52;9.90;;;9.10;;
44862;SDS011;30597;49.628;10.850;2022-08-19T01:31:22;10.70;;;9.80;;
44862;SDS011;30597;49.628;10.850;2022-08-19T01:33:50;11.07;;;10.13;;
44862;SDS011;30597;49.628;10.850;2022-08-19T01:36:26;9.73;;;9.00;;
44862;SDS011;30597;49.628;10.850;2022-08-19T01:38:52;10.30;;;9.37;;
44862;SDS011;30597;49.628;10.850;2022-08-19T01:41:18;11.03;;;10.20;;
44862;SDS011;30597;49.628;10.850;2022-08-19T01:43:44;9.53;;;8.73;;
44862;SDS011;30597;49.628;10.850;2022-08-19T01:46:10;10.30;;;9.40;;
44862;SDS011;30597;49.628;10.850;2022-08-19T01:48:40;9.53;;;8.80;;
44862;SDS011;30597;49.628;10.850;2022-08-19T01:51:06;9.33;;;8.53;;
44862;SDS011;30597;49.628;10.850;2022-08-19T01:53:33;11.27;;;10.27;;
44862;SDS011;30597;49.628;10.850;2022-08-19T01:55:59;9.73;;;8.97;;
44862;SDS011;30597;49.628;10.850;2022-08-19T01:58:27;9.37;;;8.57;;
44862;SDS011;30597;49.628;10.850;2022-08-19T02:01:00;9.03;;;8.33;;
44862;SDS011;30597;49.628;10.850;2022-08-19T02:03:26;10.30;;;9.50;;
44862;SDS011;30597;49.628;10.850;2022-08-19T02:05:54;10.37;;;9.57;;
44862;SDS011;30597;49.628;10.850;2022-08-19T02:08:22;8.97;;;8.27;;
44862;SDS011;30597;49.628;10.850;2022-08-19T02:10:48;9.40;;;8.60;;
44862;SDS011;30597;49.628;10.850;2022-08-19T02:13:14;9.20;;;8.50;;
44862;SDS011;30597;49.628;10.850;2022-08-19T02:15:40;8.80;;;8.10;;
44862;SDS011;30597;49.628;10.850;2022-08-19T02:18:06;8.97;;;8.30;;
44862;SDS011;30597;49.628;10.850;2022-08-19T02:20:33;9.53;;;8.70;;
44862;SDS011;30597;49.628;10.850;2022-08-19T02:23:00;9.77;;;8.87;;
44862;SDS011;30597;49.628;10.850;2022-08-19T02:25:26;9.30;;;8.50;;
44862;SDS011;30597;49.628;10.850;2022-08-19T02:27:52;9.40;;;8.70;;
44862;SDS011;30597;49.628;10.850;2022-08-19T02:30:18;10.00;;;9.20;;
44862;SDS011;30597;49.628;10.850;2022-08-19T02:32:44;9.17;;;8.40;;
44862;SDS011;30597;49.628;10.850;2022-08-19T02:35:10;10.00;;;9.10;;
44862;SDS011;30597;49.628;10.850;2022-08-19T02:37:37;9.90;;;9.10;;
44862;SDS011;30597;49.628;10.850;2022-08-19T02:40:21;9.10;;;8.30;;
44862;SDS011;30597;49.628;10.850;2022-08-19T02:42:46;9.27;;;8.47;;
44862;SDS011;30597;49.628;10.850;2022-08-19T02:45:13;9.47;;;8.77;;
44862;SDS011;30597;49.628;10.850;2022-08-19T02:47:40;9.63;;;8.87;;
44862;SDS011;30597;49.628;10.850;2022-08-19T02:50:06;8.70;;;8.00;;
44862;SDS011;30597;49.628;10.850;2022-08-19T02:52:33;8.40;;;7.70;;
44862;SDS011;30597;49.628;10.850;2022-08-19T02:54:59;9.20;;;8.40;;
44862;SDS011;30597;49.628;10.850;2022-08-19T02:57:25;9.27;;;8.47;;
44862;SDS011;30597;49.628;10.850;2022-08-19T02:59:51;8.83;;;8.13;;
44862;SDS011;30597;49.628;10.850;2022-08-19T03:02:17;9.30;;;8.50;;
44862;SDS011;30597;49.628;10.850;2022-08-19T03:04:42;9.17;;;8.40;;
44862;SDS011;30597;49.628;10.850;2022-08-19T03:07:08;9.13;;;8.37;;
44862;SDS011;30597;49.628;10.850;2022-08-19T03:09:38;9.03;;;8.13;;
44862;SDS011;30597;49.628;10.850;2022-08-19T03:12:04;8.77;;;8.10;;
44862;SDS011;30597;49.628;10.850;2022-08-19T03:14:31;9.13;;;8.43;;
44862;SDS011;30597;49.628;10.850;2022-08-19T03:16:57;8.70;;;8.00;;
44862;SDS011;30597;49.628;10.850;2022-08-19T03:19:23;10.03;;;9.13;;
44862;SDS011;30597;49.628;10.850;2022-08-19T03:21:49;8.80;;;8.10;;
44862;SDS011;30597;49.628;10.850;2022-08-19T03:24:16;9.03;;;8.27;;
44862;SDS011;30597;49.628;10.850;2022-08-19T03:26:44;9.47;;;8.67;;
44862;SDS011;30597;49.628;10.850;2022-08-19T03:29:13;9.13;;;8.33;;
44862;SDS011;30597;49.628;10.850;2022-08-19T03:31:39;8.47;;;7.83;;
44862;SDS011;30597;49.628;10.850;2022-08-19T03:34:06;9.00;;;8.30;;
44862;SDS011;30597;49.628;10.850;2022-08-19T03:36:32;9.50;;;8.70;;
44862;SDS011;30597;49.628;10.850;2022-08-19T03:38:59;8.70;;;8.00;;
44862;SDS011;30597;49.628;10.850;2022-08-19T03:41:28;8.97;;;8.27;;
44862;SDS011;30597;49.628;10.850;2022-08-19T03:43:56;9.40;;;8.60;;
44862;SDS011;30597;49.628;10.850;2022-08-19T03:46:24;9.50;;;8.60;;
44862;SDS011;30597;49.628;10.850;2022-08-19T03:48:51;9.43;;;8.70;;
44862;SDS011;30597;49.628;10.850;2022-08-19T03:51:32;9.40;;;8.60;;
44862;SDS011;30597;49.628;10.850;2022-08-19T03:54:04;9.70;;;8.90;;
44862;SDS011;30597;49.628;10.850;2022-08-19T03:56:32;9.23;;;8.53;;
44862;SDS011;30597;49.628;10.850;2022-08-19T03:59:00;9.30;;;8.60;;
44862;SDS011;30597;49.628;10.850;2022-08-19T04:01:27;8.83;;;8.13;;
44862;SDS011;30597;49.628;10.850;2022-08-19T04:03:54;9.50;;;8.73;;
44862;SDS011;30597;49.628;10.850;2022-08-19T04:06:39;8.60;;;7.80;;
44862;SDS011;30597;49.628;10.850;2022-08-19T04:09:06;8.57;;;7.80;;
44862;SDS011;30597;49.628;10.850;2022-08-19T04:11:35;8.90;;;8.00;;
44862;SDS011;30597;49.628;10.850;2022-08-19T04:14:06;9.10;;;8.30;;
44862;SDS011;30597;49.628;10.850;2022-08-19T04:16:33;8.93;;;8.13;;
44862;SDS011;30597;49.628;10.850;2022-08-19T04:19:00;9.73;;;8.93;;
44862;SDS011;30597;49.628;10.850;2022-08-19T04:21:27;8.97;;;8.27;;
44862;SDS011;30597;49.628;10.850;2022-08-19T04:23:54;9.60;;;8.80;;
44862;SDS011;30597;49.628;10.850;2022-08-19T04:26:22;8.30;;;7.40;;
44862;SDS011;30597;49.628;10.850;2022-08-19T04:28:49;8.40;;;7.70;;
44862;SDS011;30597;49.628;10.850;2022-08-19T04:31:20;9.00;;;8.30;;
44862;SDS011;30597;49.628;10.850;2022-08-19T04:33:50;8.47;;;7.67;;
44862;SDS011;30597;49.628;10.850;2022-08-19T04:36:22;11.20;;;8.43;;
44862;SDS011;30597;49.628;10.850;2022-08-19T04:38:53;9.63;;;8.73;;
44862;SDS011;30597;49.628;10.850;2022-08-19T04:41:20;9.57;;;8.87;;
44862;SDS011;30597;49.628;10.850;2022-08-19T04:44:04;9.50;;;8.70;;
44862;SDS011;30597;49.628;10.850;2022-08-19T04:46:30;8.63;;;7.93;;
44862;SDS011;30597;49.628;10.850;2022-08-19T04:48:56;8.40;;;7.70;;
44862;SDS011;30597;49.628;10.850;2022-08-19T04:51:23;8.93;;;8.23;;
44862;SDS011;30597;49.628;10.850;2022-08-19T04:53:49;8.73;;;8.03;;
44862;SDS011;30597;49.628;10.850;2022-08-19T04:56:16;9.53;;;8.73;;
44862;SDS011;30597;49.628;10.850;2022-08-19T04:58:44;8.70;;;8.00;;
44862;SDS011;30597;49.628;10.850;2022-08-19T05:01:17;9.47;;;8.63;;
44862;SDS011;30597;49.628;10.850;2022-08-19T05:03:46;8.60;;;7.90;;
44862;SDS011;30597;49.628;10.850;2022-08-19T05:06:13;8.60;;;7.93;;
44862;SDS011;30597;49.628;10.850;2022-08-19T05:08:41;8.87;;;8.17;;
44862;SDS011;30597;49.628;10.850;2022-08-19T05:11:14;9.67;;;8.87;;
44862;SDS011;30597;49.628;10.850;2022-08-19T05:13:48;8.47;;;7.77;;
44862;SDS011;30597;49.628;10.850;2022-08-19T05:16:14;8.77;;;7.93;;
44862;SDS011;30597;49.628;10.850;2022-08-19T05:18:42;8.67;;;7.97;;
44862;SDS011;30597;49.628;10.850;2022-08-19T05:21:26;9.43;;;8.73;;
44862;SDS011;30597;49.628;10.850;2022-08-19T05:24:11;8.70;;;7.90;;
44862;SDS011;30597;49.628;10.850;2022-08-19T05:26:38;9.30;;;8.40;;
44862;SDS011;30597;49.628;10.850;2022-08-19T05:29:06;8.57;;;7.87;;
44862;SDS011;30597;49.628;10.850;2022-08-19T05:31:33;9.23;;;8.43;;
44862;SDS011;30597;49.628;10.850;2022-08-19T05:34:00;9.00;;;8.13;;
44862;SDS011;30597;49.628;10.850;2022-08-19T05:36:26;9.27;;;8.47;;
44862;SDS011;30597;49.628;10.850;2022-08-19T05:38:53;8.73;;;8.03;;
44862;SDS011;30597;49.628;10.850;2022-08-19T05:41:19;7.80;;;7.20;;
44862;SDS011;30597;49.628;10.850;2022-08-19T05:43:45;9.13;;;8.33;;
44862;SDS011;30597;49.628;10.850;2022-08-19T05:46:18;8.33;;;7.63;;
44862;SDS011;30597;49.628;10.850;2022-08-19T05:48:44;9.43;;;7.87;;
44862;SDS011;30597;49.628;10.850;2022-08-19T05:51:10;9.20;;;8.50;;
44862;SDS011;30597;49.628;10.850;2022-08-19T05:53:36;9.70;;;8.80;;
44862;SDS011;30597;49.628;10.850;2022-08-19T05:56:05;8.30;;;7.70;;
44862;SDS011;30597;49.628;10.850;2022-08-19T05:58:36;9.10;;;8.17;;
44862;SDS011;30597;49.628;10.850;2022-08-19T06:01:09;9.00;;;8.30;;
44862;SDS011;30597;49.628;10.850;2022-08-19T06:03:36;9.37;;;8.57;;
44862;SDS011;30597;49.628;10.850;2022-08-19T06:06:03;9.40;;;8.60;;
44862;SDS011;30597;49.628;10.850;2022-08-19T06:08:30;8.60;;;7.90;;
44862;SDS011;30597;49.628;10.850;2022-08-19T06:10:56;8.60;;;7.80;;
44862;SDS011;30597;49.628;10.850;2022-08-19T06:13:22;8.13;;;7.40;;
44862;SDS011;30597;49.628;10.850;2022-08-19T06:15:48;8.63;;;7.83;;
44862;SDS011;30597;49.628;10.850;2022-08-19T06:18:14;8.33;;;7.63;;
44862;SDS011;30597;49.628;10.850;2022-08-19T06:20:40;10.03;;;8.40;;
44862;SDS011;30597;49.628;10.850;2022-08-19T06:23:07;8.20;;;7.43;;
44862;SDS011;30597;49.628;10.850;2022-08-19T06:25:33;23.40;;;21.00;;
44862;SDS011;30597;49.628;10.850;2022-08-19T06:27:59;30.87;;;26.80;;
44862;SDS011;30597;49.628;10.850;2022-08-19T06:30:25;29.93;;;27.00;;
44862;SDS011;30597;49.628;10.850;2022-08-19T06:32:50;30.93;;;26.20;;
44862;SDS011;30597;49.628;10.850;2022-08-19T06:35:16;28.97;;;24.13;;
44862;SDS011;30597;49.628;10.850;2022-08-19T06:37:41;27.27;;;24.33;;
44862;SDS011;30597;49.628;10.850;2022-08-19T06:40:08;25.07;;;22.40;;
44862;SDS011;30597;49.628;10.850;2022-08-19T06:42:35;26.23;;;23.47;;
44862;SDS011;30597;49.628;10.850;2022-08-19T06:45:03;27.40;;;24.47;;
44862;SDS011;30597;49.628;10.850;2022-08-19T06:47:30;25.10;;;22.40;;
44862;SDS011;30597;49.628;10.850;2022-08-19T06:49:58;25.97;;;23.20;;
44862;SDS011;30597;49.628;10.850;2022-08-19T06:52:27;23.30;;;20.90;;
44862;SDS011;30597;49.628;10.850;2022-08-19T06:54:54;24.97;;;20.60;;
44862;SDS011;30597;49.628;10.850;2022-08-19T06:57:21;25.43;;;21.53;;
44862;SDS011;30597;49.628;10.850;2022-08-19T06:59:48;24.80;;;21.60;;
44862;SDS011;30597;49.628;10.850;2022-08-19T07:02:13;25.40;;;22.80;;
44862;SDS011;30597;49.628;10.850;2022-08-19T07:04:39;26.10;;;23.23;;
44862;SDS011;30597;49.628;10.850;2022-08-19T07:07:06;24.13;;;21.60;;
44862;SDS011;30597;49.628;10.850;2022-08-19T07:09:35;25.43;;;22.83;;
44862;SDS011;30597;49.628;10.850;2022-08-19T07:12:03;26.33;;;23.70;;
44862;SDS011;30597;49.628;10.850;2022-08-19T07:14:31;26.63;;;23.83;;
44862;SDS011;30597;49.628;10.850;2022-08-19T07:17:02;24.50;;;21.90;;
44862;SDS011;30597;49.628;10.850;2022-08-19T07:19:30;27.90;;;23.10;;
44862;SDS011;30597;49.628;10.850;2022-08-19T07:21:56;26.20;;;23.30;;
44862;SDS011;30597;49.628;10.850;2022-08-19T07:24:22;26.13;;;23.40;;
44862;SDS011;30597;49.628;10.850;2022-08-19T07:26:50;26.30;;;23.67;;
44862;SDS011;30597;49.628;10.850;2022-08-19T07:29:17;25.77;;;23.07;;
44862;SDS011;30597;49.628;10.850;2022-08-19T07:31:44;25.10;;;22.50;;
44862;SDS011;30597;49.628;10.850;2022-08-19T07:34:10;24.37;;;21.77;;
44862;SDS011;30597;49.628;10.850;2022-08-19T07:36:39;25.00;;;22.17;;
44862;SDS011;30597;49.628;10.850;2022-08-19T07:39:07;28.63;;;22.37;;
44862;SDS011;30597;49.628;10.850;2022-08-19T07:41:39;24.53;;;21.93;;
44862;SDS011;30597;49.628;10.850;2022-08-19T07:44:06;24.47;;;21.90;;
44862;SDS011;30597;49.628;10.850;2022-08-19T07:46:33;27.77;;;24.90;;
44862;SDS011;30597;49.628;10.850;2022-08-19T07:49:00;26.47;;;23.23;;
44862;SDS011;30597;49.628;10.850;2022-08-19T07:51:27;25.57;;;22.87;;
44862;SDS011;30597;49.628;10.850;2022-08-19T07:53:53;25.67;;;22.60;;
44862;SDS011;30597;49.628;10.850;2022-08-19T07:56:19;25.33;;;22.63;;
44862;SDS011;30597;49.628;10.850;2022-08-19T07:58:46;27.67;;;22.27;;
44862;SDS011;30597;49.628;10.850;2022-08-19T08:01:14;26.00;;;21.40;;
44862;SDS011;30597;49.628;10.850;2022-08-19T08:03:43;24.33;;;21.83;;
44862;SDS011;30597;49.628;10.850;2022-08-19T08:06:27;24.00;;;20.40;;
44862;SDS011;30597;49.628;10.850;2022-08-19T08:09:12;23.47;;;21.00;;
44862;SDS011;30597;49.628;10.850;2022-08-19T08:11:48;24.87;;;21.77;;
44862;SDS011;30597;49.628;10.850;2022-08-19T08:14:17;25.97;;;20.67;;
44862;SDS011;30597;49.628;10.850;2022-08-19T08:16:48;23.83;;;21.33;;
44862;SDS011;30597;49.628;10.850;2022-08-19T08:19:16;26.10;;;20.87;;
44862;SDS011;30597;49.628;10.850;2022-08-19T08:21:42;26.50;;;20.30;;
44862;SDS011;30597;49.628;10.850;2022-08-19T08:24:08;21.13;;;18.80;;
44862;SDS011;30597;49.628;10.850;2022-08-19T08:26:35;26.63;;;20.10;;
44862;SDS011;30597;49.628;10.850;2022-08-19T08:29:00;21.87;;;18.80;;
44862;SDS011;30597;49.628;10.850;2022-08-19T08:31:26;24.40;;;19.70;;
44862;SDS011;30597;49.628;10.850;2022-08-19T08:33:52;22.63;;;18.60;;
44862;SDS011;30597;49.628;10.850;2022-08-19T08:36:17;21.07;;;18.80;;
44862;SDS011;30597;49.628;10.850;2022-08-19T08:38:44;23.43;;;18.23;;
44862;SDS011;30597;49.628;10.850;2022-08-19T08:41:17;21.83;;;17.80;;
44862;SDS011;30597;49.628;10.850;2022-08-19T08:43:47;20.07;;;18.07;;
44862;SDS011;30597;49.628;10.850;2022-08-19T08:46:21;20.47;;;18.27;;
44862;SDS011;30597;49.628;10.850;2022-08-19T08:48:59;21.43;;;17.80;;
44862;SDS011;30597;49.628;10.850;2022-08-19T08:51:27;19.40;;;17.33;;
44862;SDS011;30597;49.628;10.850;2022-08-19T08:53:58;21.57;;;19.47;;
44862;SDS011;30597;49.628;10.850;2022-08-19T08:56:24;21.03;;;19.13;;
44862;SDS011;30597;49.628;10.850;2022-08-19T08:59:04;19.67;;;17.63;;
44862;SDS011;30597;49.628;10.850;2022-08-19T09:01:34;20.17;;;18.23;;
44862;SDS011;30597;49.628;10.850;2022-08-19T09:04:04;19.17;;;17.17;;
44862;SDS011;30597;49.628;10.850;2022-08-19T09:06:35;18.77;;;16.90;;
44862;SDS011;30597;49.628;10.850;2022-08-19T09:09:20;17.43;;;15.83;;
44862;SDS011;30597;49.628;10.850;2022-08-19T09:12:01;18.50;;;16.70;;
44862;SDS011;30597;49.628;10.850;2022-08-19T09:14:43;17.53;;;15.73;;
44862;SDS011;30597;49.628;10.850;2022-08-19T09:17:17;18.80;;;16.60;;
44862;SDS011;30597;49.628;10.850;2022-08-19T09:19:55;18.30;;;16.40;;
44862;SDS011;30597;49.628;10.850;2022-08-19T09:22:21;19.17;;;17.10;;
44862;SDS011;30597;49.628;10.850;2022-08-19T09:24:48;17.90;;;16.10;;
44862;SDS011;30597;49.628;10.850;2022-08-19T09:27:14;15.83;;;14.10;;
44862;SDS011;30597;49.628;10.850;2022-08-19T09:29:40;16.90;;;14.80;;
44862;SDS011;30597;49.628;10.850;2022-08-19T09:32:05;17.00;;;15.40;;
44862;SDS011;30597;49.628;10.850;2022-08-19T09:34:31;17.50;;;15.90;;
44862;SDS011;30597;49.628;10.850;2022-08-19T09:36:57;16.17;;;14.47;;
44862;SDS011;30597;49.628;10.850;2022-08-19T09:39:25;16.53;;;14.57;;
44862;SDS011;30597;49.628;10.850;2022-08-19T09:41:51;15.50;;;13.90;;
44862;SDS011;30597;49.628;10.850;2022-08-19T09:44:17;16.40;;;14.90;;
44862;SDS011;30597;49.628;10.850;2022-08-19T09:46:45;16.60;;;15.10;;
44862;SDS011;30597;49.628;10.850;2022-08-19T09:49:14;15.60;;;14.10;;
44862;SDS011;30597;49.628;10.850;2022-08-19T09:51:42;15.30;;;13.80;;
44862;SDS011;30597;49.628;10.850;2022-08-19T09:54:07;17.27;;;15.07;;
44862;SDS011;30597;49.628;10.850;2022-08-19T09:56:33;15.67;;;14.27;;
44862;SDS011;30597;49.628;10.850;2022-08-19T09:58:59;14.93;;;13.57;;
44862;SDS011;30597;49.628;10.850;2022-08-19T10:01:27;15.63;;;14.00;;
44862;SDS011;30597;49.628;10.850;2022-08-19T10:03:54;15.57;;;14.07;;
44862;SDS011;30597;49.628;10.850;2022-08-19T10:06:22;15.57;;;14.00;;
44862;SDS011;30597;49.628;10.850;2022-08-19T10:08:50;14.40;;;13.10;;
44862;SDS011;30597;49.628;10.850;2022-08-19T10:11:16;16.37;;;14.87;;
44862;SDS011;30597;49.628;10.850;2022-08-19T10:13:43;15.20;;;13.83;;
44862;SDS011;30597;49.628;10.850;2022-08-19T10:16:11;16.13;;;14.43;;
44862;SDS011;30597;49.628;10.850;2022-08-19T10:18:39;15.03;;;13.40;;
44862;SDS011;30597;49.628;10.850;2022-08-19T10:21:08;15.37;;;13.97;;
44862;SDS011;30597;49.628;10.850;2022-08-19T10:23:37;15.10;;;13.70;;
44862;SDS011;30597;49.628;10.850;2022-08-19T10:26:04;14.90;;;13.50;;
44862;SDS011;30597;49.628;10.850;2022-08-19T10:28:32;15.37;;;13.90;;
44862;SDS011;30597;49.628;10.850;2022-08-19T10:31:03;15.13;;;13.73;;
44862;SDS011;30597;49.628;10.850;2022-08-19T10:33:33;15.73;;;13.23;;
44862;SDS011;30597;49.628;10.850;2022-08-19T10:36:00;14.97;;;13.70;;
44862;SDS011;30597;49.628;10.850;2022-08-19T10:38:31;14.90;;;13.60;;
44862;SDS011;30597;49.628;10.850;2022-08-19T10:40:57;14.60;;;13.30;;
44862;SDS011;30597;49.628;10.850;2022-08-19T10:43:23;15.83;;;14.30;;
44862;SDS011;30597;49.628;10.850;2022-08-19T10:45:55;14.63;;;13.33;;
44862;SDS011;30597;49.628;10.850;2022-08-19T10:48:23;13.83;;;12.67;;
44862;SDS011;30597;49.628;10.850;2022-08-19T10:50:48;14.67;;;13.37;;
44862;SDS011;30597;49.628;10.850;2022-08-19T10:53:32;13.90;;;12.70;;
44862;SDS011;30597;49.628;10.850;2022-08-19T10:55:58;14.37;;;13.07;;
44862;SDS011;30597;49.628;10.850;2022-08-19T10:58:42;13.10;;;12.00;;
44862;SDS011;30597;49.628;10.850;2022-08-19T11:01:08;14.20;;;12.80;;
44862;SDS011;30597;49.628;10.850;2022-08-19T11:03:33;13.73;;;12.43;;
44862;SDS011;30597;49.628;10.850;2022-08-19T11:05:59;13.27;;;12.03;;
44862;SDS011;30597;49.628;10.850;2022-08-19T11:08:26;12.00;;;10.90;;
44862;SDS011;30597;49.628;10.850;2022-08-19T11:10:52;12.63;;;11.43;;
44862;SDS011;30597;49.628;10.850;2022-08-19T11:13:25;12.43;;;11.23;;
44862;SDS011;30597;49.628;10.850;2022-08-19T11:16:03;12.63;;;11.33;;
44862;SDS011;30597;49.628;10.850;2022-08-19T11:18:31;12.60;;;11.50;;
44862;SDS011;30597;49.628;10.850;2022-08-19T11:21:05;12.80;;;11.70;;
44862;SDS011;30597;49.628;10.850;2022-08-19T11:23:35;12.43;;;11.33;;
44862;SDS011;30597;49.628;10.850;2022-08-19T11:26:00;14.03;;;12.63;;
44862;SDS011;30597;49.628;10.850;2022-08-19T11:28:26;13.67;;;12.57;;
44862;SDS011;30597;49.628;10.850;2022-08-19T11:30:52;17.70;;;13.13;;
44862;SDS011;30597;49.628;10.850;2022-08-19T11:33:17;14.00;;;12.80;;
44862;SDS011;30597;49.628;10.850;2022-08-19T11:35:43;13.93;;;12.60;;
44862;SDS011;30597;49.628;10.850;2022-08-19T11:38:09;12.40;;;11.30;;
44862;SDS011;30597;49.628;10.850;2022-08-19T11:40:36;14.43;;;13.17;;
44862;SDS011;30597;49.628;10.850;2022-08-19T11:43:02;13.70;;;12.50;;
44862;SDS011;30597;49.628;10.850;2022-08-19T11:45:28;13.93;;;12.63;;
44862;SDS011;30597;49.628;10.850;2022-08-19T11:47:55;14.50;;;13.10;;
44862;SDS011;30597;49.628;10.850;2022-08-19T11:50:21;15.30;;;14.00;;
44862;SDS011;30597;49.628;10.850;2022-08-19T11:52:48;14.80;;;13.40;;
44862;SDS011;30597;49.628;10.850;2022-08-19T11:55:14;14.90;;;13.50;;
44862;SDS011;30597;49.628;10.850;2022-08-19T11:57:40;14.20;;;12.77;;
44862;SDS011;30597;49.628;10.850;2022-08-19T12:00:07;14.70;;;13.20;;
44862;SDS011;30597;49.628;10.850;2022-08-19T12:02:35;14.30;;;13.00;;
44862;SDS011;30597;49.628;10.850;2022-08-19T12:05:00;14.20;;;12.70;;
44862;SDS011;30597;49.628;10.850;2022-08-19T12:07:28;14.40;;;13.10;;
44862;SDS011;30597;49.628;10.850;2022-08-19T12:09:56;14.07;;;12.80;;
44862;SDS011;30597;49.628;10.850;2022-08-19T12:12:21;15.10;;;13.70;;
44862;SDS011;30597;49.628;10.850;2022-08-19T12:14:49;14.63;;;13.30;;
44862;SDS011;30597;49.628;10.850;2022-08-19T12:17:21;15.13;;;13.83;;
44862;SDS011;30597;49.628;10.850;2022-08-19T12:19:53;15.03;;;13.67;;
44862;SDS011;30597;49.628;10.850;2022-08-19T12:22:19;15.87;;;14.37;;
44862;SDS011;30597;49.628;10.850;2022-08-19T12:24:45;14.67;;;13.17;;
44862;SDS011;30597;49.628;10.850;2022-08-19T12:27:11;16.40;;;14.80;;
44862;SDS011;30597;49.628;10.850;2022-08-19T12:29:36;15.47;;;14.07;;
44862;SDS011;30597;49.628;10.850;2022-08-19T12:32:02;15.47;;;14.07;;
44862;SDS011;30597;49.628;10.850;2022-08-19T12:34:29;14.70;;;13.47;;
44862;SDS011;30597;49.628;10.850;2022-08-19T12:36:56;15.50;;;14.03;;
44862;SDS011;30597;49.628;10.850;2022-08-19T12:39:22;14.10;;;12.90;;
44862;SDS011;30597;49.628;10.850;2022-08-19T12:41:48;15.77;;;14.37;;
44862;SDS011;30597;49.628;10.850;2022-08-19T12:44:13;15.23;;;13.83;;
44862;SDS011;30597;49.628;10.850;2022-08-19T12:46:39;16.70;;;15.00;;
44862;SDS011;30597;49.628;10.850;2022-08-19T12:49:05;14.40;;;13.00;;
44862;SDS011;30597;49.628;10.850;2022-08-19T12:51:30;17.07;;;13.13;;
44862;SDS011;30597;49.628;10.850;2022-08-19T12:53:56;15.07;;;13.77;;
44862;SDS011;30597;49.628;10.850;2022-08-19T12:56:22;13.93;;;12.73;;
44862;SDS011;30597;49.628;10.850;2022-08-19T12:58:47;13.37;;;12.17;;
44862;SDS011;30597;49.628;10.850;2022-08-19T13:01:14;15.03;;;13.60;;
44862;SDS011;30597;49.628;10.850;2022-08-19T13:03:41;13.40;;;12.20;;
44862;SDS011;30597;49.628;10.850;2022-08-19T13:06:08;14.97;;;13.67;;
44862;SDS011;30597;49.628;10.850;2022-08-19T13:08:33;14.40;;;13.20;;
44862;SDS011;30597;49.628;10.850;2022-08-19T13:11:06;13.27;;;12.10;;
44862;SDS011;30597;49.628;10.850;2022-08-19T13:13:43;13.87;;;12.57;;
44862;SDS011;30597;49.628;10.850;2022-08-19T13:16:11;14.07;;;12.77;;
44862;SDS011;30597;49.628;10.850;2022-08-19T13:18:38;14.50;;;13.23;;
44862;SDS011;30597;49.628;10.850;2022-08-19T13:21:05;14.00;;;12.80;;
44862;SDS011;30597;49.628;10.850;2022-08-19T13:23:33;12.90;;;11.80;;
44862;SDS011;30597;49.628;10.850;2022-08-19T13:26:01;14.13;;;12.47;;
44862;SDS011;30597;49.628;10.850;2022-08-19T13:28:29;14.13;;;12.93;;
44862;SDS011;30597;49.628;10.850;2022-08-19T13:31:20;13.33;;;12.10;;
44862;SDS011;30597;49.628;10.850;2022-08-19T13:34:05;13.60;;;12.30;;
44862;SDS011;30597;49.628;10.850;2022-08-19T13:36:34;14.73;;;12.63;;
44862;SDS011;30597;49.628;10.850;2022-08-19T13:39:01;13.80;;;12.47;;
44862;SDS011;30597;49.628;10.850;2022-08-19T13:41:28;13.03;;;11.90;;
44862;SDS011;30597;49.628;10.850;2022-08-19T13:43:53;13.17;;;11.97;;
44862;SDS011;30597;49.628;10.850;2022-08-19T13:46:19;12.87;;;11.60;;
44862;SDS011;30597;49.628;10.850;2022-08-19T13:48:45;13.93;;;11.27;;
44862;SDS011;30597;49.628;10.850;2022-08-19T13:51:12;11.67;;;10.73;;
44862;SDS011;30597;49.628;10.850;2022-08-19T13:53:40;11.87;;;10.60;;
44862;SDS011;30597;49.628;10.850;2022-08-19T13:56:08;10.63;;;9.70;;
44862;SDS011;30597;49.628;10.850;2022-08-19T13:58:38;11.87;;;10.50;;
44862;SDS011;30597;49.628;10.850;2022-08-19T14:01:04;11.07;;;10.13;;
44862;SDS011;30597;49.628;10.850;2022-08-19T14:03:32;11.13;;;10.13;;
44862;SDS011;30597;49.628;10.850;2022-08-19T14:05:58;10.90;;;9.90;;
44862;SDS011;30597;49.628;10.850;2022-08-19T14:08:24;10.80;;;9.70;;
44862;SDS011;30597;49.628;10.850;2022-08-19T14:10:52;10.73;;;9.73;;
44862;SDS011;30597;49.628;10.850;2022-08-19T14:13:22;9.83;;;8.90;;
44862;SDS011;30597;49.628;10.850;2022-08-19T14:15:48;9.13;;;8.23;;
44862;SDS011;30597;49.628;10.850;2022-08-19T14:18:15;8.30;;;7.20;;
44862;SDS011;30597;49.628;10.850;2022-08-19T14:20:41;11.37;;;8.50;;
44862;SDS011;30597;49.628;10.850;2022-08-19T14:23:07;8.53;;;7.73;;
44862;SDS011;30597;49.628;10.850;2022-08-19T14:25:33;9.67;;;8.77;;